createdAt,value
2023-04-21T00:01:05.186Z,52.85
2023-04-21T00:03:38.348Z,46.17
2023-04-21T00:06:09.660Z,41.63
2023-04-21T00:08:41.234Z,38.50
2023-04-21T00:11:10.877Z,46.05
2023-04-21T00:13:39.129Z,45.90
2023-04-21T00:16:07.540Z,36.78
2023-04-21T00:18:36.306Z,34.30
2023-04-21T00:21:04.194Z,41.20
2023-04-21T00:23:33.094Z,49.45
2023-04-21T00:26:03.142Z,42.97
2023-04-21T00:28:31.284Z,47.38
2023-04-21T00:30:59.781Z,35.60
2023-04-21T00:33:28.632Z,37.67
2023-04-21T00:35:59.505Z,36.90
2023-04-21T00:38:29.428Z,38.72
2023-04-21T00:40:57.657Z,36.58
2023-04-21T00:43:28.909Z,41.25
2023-04-21T00:45:57.012Z,33.15
2023-04-21T00:48:25.188Z,28.80
2023-04-21T00:50:53.396Z,32.50
2023-04-21T00:53:21.556Z,33.70
2023-04-21T00:55:50.634Z,30.80
2023-04-21T00:58:18.777Z,34.28
2023-04-21T01:00:46.805Z,31.70
2023-04-21T01:03:15.332Z,43.40
2023-04-21T01:05:43.628Z,33.83
2023-04-21T01:08:14.036Z,35.10
2023-04-21T01:10:44.742Z,29.42
2023-04-21T01:13:14.746Z,27.70
2023-04-21T01:15:43.889Z,32.42
2023-04-21T01:18:11.999Z,29.58
2023-04-21T01:20:44.963Z,35.13
2023-04-21T01:23:13.019Z,29.67
2023-04-21T01:25:41.833Z,21.85
2023-04-21T01:28:11.902Z,36.47
2023-04-21T01:30:41.288Z,36.42
2023-04-21T01:33:09.547Z,28.60
2023-04-21T01:35:37.630Z,29.42
2023-04-21T01:38:06.268Z,26.05
2023-04-21T01:40:34.499Z,27.35
2023-04-21T01:43:04.248Z,30.38
2023-04-21T01:45:33.698Z,29.65
2023-04-21T01:48:02.502Z,32.22
2023-04-21T01:50:30.948Z,33.63
2023-04-21T01:52:59.103Z,22.88
2023-04-21T01:55:28.492Z,38.33
2023-04-21T01:57:59.984Z,30.88
2023-04-21T02:00:28.422Z,28.92
2023-04-21T02:02:57.389Z,28.92
2023-04-21T02:05:25.543Z,31.25
2023-04-21T02:07:53.680Z,27.33
2023-04-21T02:10:23.703Z,30.33
2023-04-21T02:12:53.020Z,31.85
2023-04-21T02:15:21.086Z,24.67
2023-04-21T02:17:49.751Z,25.52
2023-04-21T02:20:18.326Z,26.42
2023-04-21T02:22:47.927Z,25.48
2023-04-21T02:25:16.089Z,27.40
2023-04-21T02:27:45.825Z,30.50
2023-04-21T02:30:14.888Z,35.30
2023-04-21T02:32:44.092Z,20.73
2023-04-21T02:35:13.878Z,29.13
2023-04-21T02:37:42.179Z,28.40
2023-04-21T02:40:10.717Z,34.47
2023-04-21T02:42:38.865Z,28.23
2023-04-21T02:45:07.417Z,28.17
2023-04-21T02:47:37.480Z,33.15
2023-04-21T02:50:08.036Z,29.38
2023-04-21T02:52:38.159Z,30.15
2023-04-21T02:55:06.651Z,23.17
2023-04-21T02:57:35.461Z,33.63
2023-04-21T03:00:05.174Z,24.08
2023-04-21T03:02:34.216Z,32.80
2023-04-21T03:05:02.913Z,34.08
2023-04-21T03:07:33.785Z,27.50
2023-04-21T03:10:02.317Z,46.92
2023-04-21T03:12:30.836Z,30.92
2023-04-21T03:15:00.815Z,32.17
2023-04-21T03:17:30.960Z,34.85
2023-04-21T03:20:01.156Z,25.52
2023-04-21T03:22:29.339Z,37.03
2023-04-21T03:24:57.495Z,30.17
2023-04-21T03:27:25.670Z,31.98
2023-04-21T03:29:54.020Z,33.28
2023-04-21T03:32:23.226Z,25.85
2023-04-21T03:34:51.925Z,35.63
2023-04-21T03:37:22.025Z,31.48
2023-04-21T03:39:50.834Z,29.70
2023-04-21T03:42:21.727Z,32.70
2023-04-21T03:44:51.174Z,25.55
2023-04-21T03:47:19.370Z,24.38
2023-04-21T03:49:47.649Z,29.20
2023-04-21T03:52:15.805Z,33.60
2023-04-21T03:54:44.653Z,37.90
2023-04-21T03:57:13.051Z,35.58
2023-04-21T03:59:41.200Z,27.02
2023-04-21T04:02:09.681Z,31.20
2023-04-21T04:04:42.150Z,40.72
2023-04-21T04:07:10.826Z,30.80
2023-04-21T04:09:39.054Z,30.25
2023-04-21T04:12:08.353Z,32.00
2023-04-21T04:14:39.717Z,32.17
2023-04-21T04:17:07.862Z,28.70
2023-04-21T04:19:36.944Z,33.65
2023-04-21T04:22:05.196Z,24.65
2023-04-21T04:24:34.322Z,27.48
2023-04-21T04:27:04.059Z,28.88
2023-04-21T04:29:33.127Z,28.38
2023-04-21T04:32:02.431Z,26.95
2023-04-21T04:34:30.877Z,29.10
2023-04-21T04:37:04.310Z,22.52
2023-04-21T04:39:37.528Z,30.48
2023-04-21T04:42:11.982Z,27.92
2023-04-21T04:44:41.782Z,30.17
2023-04-21T04:47:20.029Z,30.27
2023-04-21T04:49:48.233Z,34.90
2023-04-21T04:52:16.443Z,29.45
2023-04-21T04:54:44.531Z,28.52
2023-04-21T04:57:13.424Z,35.28
2023-04-21T04:59:41.430Z,27.98
2023-04-21T05:02:10.714Z,33.08
2023-04-21T05:04:44.189Z,36.50
2023-04-21T05:07:46.010Z,35.03
2023-04-21T05:10:58.586Z,30.40
2023-04-21T05:13:36.405Z,34.17
2023-04-21T05:16:10.349Z,30.35
2023-04-21T05:18:38.692Z,33.78
2023-04-21T05:21:12.055Z,35.42
2023-04-21T05:23:40.138Z,32.25
2023-04-21T05:26:08.267Z,24.35
2023-04-21T05:28:39.326Z,38.25
2023-04-21T05:31:07.534Z,28.25
2023-04-21T05:33:35.671Z,33.53
2023-04-21T05:36:10.247Z,25.30
2023-04-21T05:38:38.866Z,30.10
2023-04-21T05:41:06.993Z,27.77
2023-04-21T05:43:38.244Z,19.17
2023-04-21T05:46:11.316Z,29.98
2023-04-21T05:48:41.851Z,27.15
2023-04-21T05:51:11.649Z,27.50
2023-04-21T05:53:40.454Z,31.65
2023-04-21T05:56:10.388Z,30.75
2023-04-21T05:58:38.893Z,33.03
2023-04-21T06:01:06.953Z,27.65
2023-04-21T06:03:35.222Z,33.03
2023-04-21T06:06:04.658Z,32.95
2023-04-21T06:08:35.165Z,36.88
2023-04-21T06:11:04.003Z,32.58
2023-04-21T06:13:33.537Z,28.08
2023-04-21T06:16:04.743Z,17.88
2023-04-21T06:18:35.578Z,18.58
2023-04-21T06:21:06.246Z,23.10
2023-04-21T06:23:34.298Z,24.08
2023-04-21T06:26:06.981Z,22.58
2023-04-21T06:28:55.680Z,29.98
2023-04-21T06:31:25.713Z,23.48
2023-04-21T06:33:53.953Z,30.77
2023-04-21T06:36:23.113Z,27.77
2023-04-21T06:38:54.177Z,29.05
2023-04-21T06:41:24.889Z,23.60
2023-04-21T06:43:55.783Z,23.23
2023-04-21T06:46:25.404Z,27.42
2023-04-21T06:48:53.558Z,26.40
2023-04-21T06:51:22.341Z,26.88
2023-04-21T06:53:51.679Z,27.98
2023-04-21T06:56:21.404Z,32.58
2023-04-21T06:58:49.571Z,33.58
2023-04-21T07:01:18.397Z,38.40
2023-04-21T07:03:46.829Z,45.75
2023-04-21T07:06:16.462Z,30.98
2023-04-21T07:08:44.752Z,27.58
2023-04-21T07:11:15.498Z,40.47
2023-04-21T07:13:46.453Z,31.45
2023-04-21T07:16:15.226Z,28.17
2023-04-21T07:18:43.509Z,31.92
2023-04-21T07:21:11.507Z,28.55
2023-04-21T07:23:39.683Z,31.27
2023-04-21T07:26:08.785Z,36.47
2023-04-21T07:28:37.577Z,38.75
2023-04-21T07:31:06.209Z,31.58
2023-04-21T07:33:34.450Z,28.38
2023-04-21T07:36:02.493Z,29.20
2023-04-21T07:38:34.738Z,28.58
2023-04-21T07:41:03.021Z,40.65
2023-04-21T07:43:31.746Z,32.65
2023-04-21T07:46:00.486Z,22.92
2023-04-21T07:48:32.196Z,24.83
2023-04-21T07:51:00.829Z,26.73
2023-04-21T07:53:28.958Z,22.73
2023-04-21T07:55:57.718Z,34.08
2023-04-21T07:58:25.931Z,19.17
2023-04-21T08:00:55.541Z,26.45
2023-04-21T08:03:24.600Z,28.38
2023-04-21T08:05:52.920Z,26.60
2023-04-21T08:08:22.340Z,22.33
2023-04-21T08:10:50.931Z,17.02
2023-04-21T08:13:25.324Z,17.67
2023-04-21T08:15:53.723Z,21.55
2023-04-21T08:18:22.795Z,18.25
2023-04-21T08:20:53.010Z,17.80
2023-04-21T08:23:21.335Z,26.35
2023-04-21T08:25:49.386Z,27.50
2023-04-21T08:28:20.686Z,26.63
2023-04-21T08:30:49.270Z,19.48
2023-04-21T08:33:21.873Z,24.33
2023-04-21T08:36:02.427Z,30.30
2023-04-21T08:38:32.664Z,23.67
2023-04-21T08:41:00.881Z,22.40
2023-04-21T08:43:29.387Z,25.27
2023-04-21T08:45:58.294Z,17.10
2023-04-21T08:48:26.635Z,17.92
2023-04-21T08:50:54.639Z,23.98
2023-04-21T08:53:24.136Z,25.90
2023-04-21T08:56:09.895Z,22.58
2023-04-21T08:58:41.765Z,18.23
2023-04-21T09:01:12.455Z,19.98
2023-04-21T09:03:42.491Z,29.48
2023-04-21T09:06:12.983Z,23.83
2023-04-21T09:08:57.005Z,20.33
2023-04-21T09:11:26.062Z,27.35
2023-04-21T09:14:18.176Z,19.05
2023-04-21T09:16:48.837Z,18.27
2023-04-21T09:19:19.354Z,20.67
2023-04-21T09:21:48.893Z,23.73
2023-04-21T09:24:17.132Z,22.70
2023-04-21T09:26:45.489Z,19.95
2023-04-21T09:29:13.634Z,19.98
2023-04-21T09:31:41.817Z,17.73
2023-04-21T09:34:25.909Z,23.23
2023-04-21T09:37:05.297Z,15.13
2023-04-21T09:39:53.139Z,14.02
2023-04-21T09:43:02.887Z,20.83
2023-04-21T09:45:39.638Z,28.65
2023-04-21T09:48:13.005Z,19.52
2023-04-21T09:53:18.649Z,24.67
2023-04-21T09:55:57.114Z,17.95
2023-04-21T09:58:28.727Z,19.02
2023-04-21T10:00:57.201Z,20.85
2023-04-21T10:03:50.935Z,16.42
2023-04-21T10:06:50.322Z,23.15
2023-04-21T10:09:23.650Z,20.75
2023-04-21T10:11:53.611Z,19.70
2023-04-21T10:14:26.718Z,18.67
2023-04-21T10:17:09.058Z,27.08
2023-04-21T10:19:52.354Z,17.77
2023-04-21T10:22:40.681Z,18.00
2023-04-21T10:25:14.446Z,17.42
2023-04-21T10:28:08.881Z,20.33
2023-04-21T10:30:40.567Z,17.15
2023-04-21T10:33:10.206Z,22.83
2023-04-21T10:36:03.913Z,24.73
2023-04-21T10:38:55.051Z,21.10
2023-04-21T10:41:35.283Z,21.30
2023-04-21T10:44:13.478Z,20.38
2023-04-21T10:46:49.390Z,21.88
2023-04-21T10:49:30.701Z,16.50
2023-04-21T10:52:00.123Z,18.48
2023-04-21T10:54:38.340Z,25.10
2023-04-21T10:57:08.367Z,25.17
2023-04-21T10:59:37.097Z,18.58
2023-04-21T11:02:09.297Z,26.20
2023-04-21T11:04:51.083Z,18.30
2023-04-21T11:07:27.343Z,20.67
2023-04-21T11:09:58.754Z,15.55
2023-04-21T11:12:31.482Z,11.70
2023-04-21T11:15:03.604Z,18.35
2023-04-21T11:17:43.574Z,26.15
2023-04-21T11:20:12.134Z,17.67
2023-04-21T11:22:41.530Z,21.48
2023-04-21T11:25:17.791Z,14.27
2023-04-21T11:27:56.237Z,25.65
2023-04-21T11:30:34.309Z,16.25
2023-04-21T11:33:02.738Z,18.95
2023-04-21T11:35:32.198Z,21.45
2023-04-21T11:38:08.667Z,22.42
2023-04-21T11:41:03.755Z,10.85
2023-04-21T11:43:59.301Z,23.77
2023-04-21T11:46:28.200Z,22.30
2023-04-21T11:49:18.501Z,9.90
2023-04-21T11:51:48.992Z,8.40
2023-04-21T11:54:18.292Z,12.65
2023-04-21T11:57:07.913Z,7.47
2023-04-21T11:59:42.462Z,3.58
2023-04-21T12:02:14.303Z,10.07
2023-04-21T12:04:43.762Z,7.32
2023-04-21T12:07:11.906Z,5.45
2023-04-21T12:09:40.493Z,4.72
2023-04-21T12:12:09.397Z,4.78
2023-04-21T12:14:37.531Z,6.05
2023-04-21T12:17:07.040Z,8.80
2023-04-21T12:19:39.920Z,7.78
2023-04-21T12:22:09.128Z,5.20
2023-04-21T12:24:37.875Z,4.22
2023-04-21T12:27:06.470Z,8.57
2023-04-21T12:29:45.366Z,9.35
2023-04-21T12:32:15.502Z,4.75
2023-04-21T12:34:43.756Z,7.85
2023-04-21T12:37:11.671Z,5.32
2023-04-21T12:39:40.151Z,13.90
2023-04-21T12:42:08.038Z,7.63
2023-04-21T12:44:36.168Z,9.07
2023-04-21T12:47:04.729Z,5.05
2023-04-21T12:49:34.445Z,11.20
2023-04-21T12:52:05.669Z,7.55
2023-04-21T12:54:34.412Z,9.80
2023-04-21T12:57:02.653Z,11.23
2023-04-21T12:59:31.391Z,10.98
2023-04-21T13:01:59.889Z,5.07
2023-04-21T13:04:28.220Z,14.43
2023-04-21T13:06:56.383Z,11.00
2023-04-21T13:09:24.500Z,9.23
2023-04-21T13:11:52.419Z,16.27
2023-04-21T13:14:21.910Z,9.68
2023-04-21T13:16:50.070Z,8.07
2023-04-21T13:19:18.492Z,7.03
2023-04-21T13:21:46.415Z,8.93
2023-04-21T13:24:15.796Z,10.73
2023-04-21T13:26:43.623Z,12.05
2023-04-21T13:29:11.509Z,17.10
2023-04-21T13:31:40.769Z,10.35
2023-04-21T13:34:09.016Z,9.15
2023-04-21T13:36:37.241Z,9.82
2023-04-21T13:39:09.720Z,8.05
2023-04-21T13:41:38.721Z,11.32
2023-04-21T13:44:06.883Z,12.77
2023-04-21T13:46:34.965Z,13.52
2023-04-21T13:49:03.161Z,16.40
2023-04-21T13:51:32.377Z,14.80
2023-04-21T13:54:00.631Z,11.43
2023-04-21T13:56:28.472Z,9.45
2023-04-21T13:58:56.800Z,9.50
2023-04-21T14:01:24.620Z,10.38
2023-04-21T14:03:54.089Z,10.68
2023-04-21T14:06:23.243Z,11.02
2023-04-21T14:08:51.425Z,15.32
2023-04-21T14:11:39.225Z,10.25
2023-04-21T14:14:09.990Z,11.40
2023-04-21T14:16:38.928Z,9.00
2023-04-21T14:19:07.512Z,12.68
2023-04-21T14:21:36.075Z,10.00
2023-04-21T14:24:05.574Z,8.45
2023-04-21T14:26:42.957Z,9.55
2023-04-21T14:29:31.707Z,11.35
2023-04-21T14:32:00.120Z,16.77
2023-04-21T14:34:28.577Z,15.65
2023-04-21T14:36:56.725Z,14.88
2023-04-21T14:39:24.793Z,15.75
2023-04-21T14:41:53.085Z,13.05
2023-04-21T14:44:21.358Z,12.68
2023-04-21T14:47:01.040Z,9.95
2023-04-21T14:49:34.170Z,12.02
2023-04-21T14:52:03.765Z,10.27
2023-04-21T14:54:34.009Z,7.95
2023-04-21T14:57:19.136Z,10.35
2023-04-21T14:59:50.166Z,11.20
2023-04-21T15:02:22.443Z,11.52
2023-04-21T15:04:51.260Z,11.60
2023-04-21T15:07:23.906Z,12.55
2023-04-21T15:09:52.329Z,15.68
2023-04-21T15:12:21.886Z,11.15
2023-04-21T15:14:50.448Z,12.57
2023-04-21T15:17:19.185Z,16.85
2023-04-21T15:19:47.630Z,12.30
2023-04-21T15:22:22.485Z,8.05
2023-04-21T15:24:54.540Z,12.10
2023-04-21T15:27:23.346Z,13.25
2023-04-21T15:29:51.488Z,15.27
2023-04-21T15:32:22.484Z,10.10
2023-04-21T15:34:51.074Z,9.98
2023-04-21T15:37:24.217Z,11.40
2023-04-21T15:39:52.912Z,13.18
2023-04-21T15:42:23.809Z,14.98
2023-04-21T15:44:53.877Z,10.82
2023-04-21T15:47:23.905Z,12.23
2023-04-21T15:49:53.920Z,7.88
2023-04-21T15:52:22.388Z,11.43
2023-04-21T15:54:52.289Z,10.25
2023-04-21T15:57:20.589Z,14.45
2023-04-21T15:59:49.195Z,15.30
2023-04-21T16:02:22.965Z,12.07
2023-04-21T16:04:52.375Z,13.18
2023-04-21T16:07:21.039Z,7.55
2023-04-21T16:09:49.039Z,11.20
2023-04-21T16:12:18.179Z,14.52
2023-04-21T16:14:55.890Z,23.08
2023-04-21T16:17:29.093Z,9.82
2023-04-21T16:19:57.378Z,13.90
2023-04-21T16:22:28.683Z,12.88
2023-04-21T16:24:58.882Z,10.15
2023-04-21T16:27:28.440Z,8.63
2023-04-21T16:29:56.556Z,9.57
2023-04-21T16:32:24.670Z,15.05
2023-04-21T16:34:54.927Z,12.40
2023-04-21T16:37:23.829Z,11.90
2023-04-21T16:39:53.216Z,12.68
2023-04-21T16:42:21.575Z,15.48
2023-04-21T16:45:01.866Z,8.32
2023-04-21T16:47:31.443Z,15.82
2023-04-21T16:49:59.782Z,12.70
2023-04-21T16:52:27.827Z,10.35
2023-04-21T16:54:58.278Z,12.73
2023-04-21T16:57:28.332Z,10.10
2023-04-21T16:59:58.232Z,10.77
2023-04-21T17:02:26.707Z,17.50
2023-04-21T17:04:55.999Z,12.18
2023-04-21T17:07:24.245Z,13.90
2023-04-21T17:09:56.195Z,19.17
2023-04-21T17:12:24.160Z,16.88
2023-04-21T17:14:52.233Z,16.50
2023-04-21T17:17:23.470Z,11.57
2023-04-21T17:19:53.227Z,14.68
2023-04-21T17:22:21.297Z,14.18
2023-04-21T17:24:53.748Z,7.82
2023-04-21T17:27:26.144Z,9.53
2023-04-21T17:29:54.398Z,13.55
2023-04-21T17:32:23.035Z,11.43
2023-04-21T17:34:51.223Z,14.93
2023-04-21T17:37:21.299Z,12.55
2023-04-21T17:39:51.167Z,10.65
2023-04-21T17:42:40.227Z,16.80
2023-04-21T17:45:10.297Z,15.27
2023-04-21T17:47:40.758Z,12.52
2023-04-21T17:50:10.498Z,11.63
2023-04-21T17:52:41.549Z,10.90
2023-04-21T17:55:11.851Z,8.00
2023-04-21T17:57:42.018Z,17.77
2023-04-21T18:00:12.290Z,10.77
2023-04-21T18:02:41.339Z,14.63
2023-04-21T18:05:15.957Z,10.05
2023-04-21T18:07:49.099Z,8.77
2023-04-21T18:10:19.314Z,11.93
2023-04-21T18:12:52.185Z,11.35
2023-04-21T18:15:21.019Z,9.52
2023-04-21T18:17:49.123Z,6.32
2023-04-21T18:20:20.839Z,7.70
2023-04-21T18:22:51.945Z,10.18
2023-04-21T18:25:30.523Z,14.95
2023-04-21T18:28:11.906Z,15.90
2023-04-21T18:30:42.894Z,16.98
2023-04-21T18:33:13.986Z,13.15
2023-04-21T18:35:43.568Z,14.65
2023-04-21T18:38:14.605Z,14.98
2023-04-21T18:40:43.287Z,10.23
2023-04-21T18:43:11.250Z,17.05
2023-04-21T18:45:40.219Z,15.57
2023-04-21T18:48:08.284Z,10.77
2023-04-21T18:50:41.090Z,10.77
2023-04-21T18:53:10.544Z,12.60
2023-04-21T18:55:39.058Z,14.85
2023-04-21T18:58:07.974Z,13.10
2023-04-21T19:00:39.219Z,13.50
2023-04-21T19:03:07.553Z,8.90
2023-04-21T19:05:40.770Z,16.80
2023-04-21T19:08:13.195Z,16.58
2023-04-21T19:10:41.902Z,12.20
2023-04-21T19:13:10.392Z,12.07
2023-04-21T19:15:41.572Z,12.07
2023-04-21T19:18:09.568Z,8.70
2023-04-21T19:20:38.872Z,9.02
2023-04-21T19:23:07.212Z,13.70
2023-04-21T19:25:36.413Z,13.15
2023-04-21T19:28:09.177Z,10.70
2023-04-21T19:30:39.083Z,9.88
2023-04-21T19:33:07.435Z,11.88
2023-04-21T19:35:39.413Z,13.85
2023-04-21T19:38:10.184Z,12.18
2023-04-21T19:40:45.208Z,13.32
2023-04-21T19:43:17.119Z,16.38
2023-04-21T19:45:47.705Z,10.70
2023-04-21T19:48:17.827Z,12.57
2023-04-21T19:50:50.478Z,9.82
2023-04-21T19:53:23.169Z,11.32
2023-04-21T19:55:52.722Z,13.27
2023-04-21T19:58:38.922Z,11.43
2023-04-21T20:01:10.190Z,11.85
2023-04-21T20:03:41.273Z,10.32
2023-04-21T20:06:12.320Z,12.80
2023-04-21T20:08:46.075Z,15.25
2023-04-21T20:11:14.418Z,20.67
2023-04-21T20:13:42.822Z,16.98
2023-04-21T20:16:14.431Z,15.90
2023-04-21T20:18:42.971Z,15.35
2023-04-21T20:21:12.226Z,13.57
2023-04-21T20:23:41.830Z,16.83
2023-04-21T20:26:20.751Z,14.50
2023-04-21T20:28:49.051Z,14.73
2023-04-21T20:31:19.285Z,11.68
2023-04-21T20:33:50.413Z,12.52
2023-04-21T20:36:20.313Z,14.43
2023-04-21T20:38:50.689Z,10.70
2023-04-21T20:41:18.973Z,17.10
2023-04-21T20:43:56.526Z,12.10
2023-04-21T20:46:34.293Z,9.23
2023-04-21T20:49:22.864Z,14.60
2023-04-21T20:51:58.142Z,13.30
2023-04-21T20:54:26.919Z,15.10
2023-04-21T20:56:56.040Z,18.60
2023-04-21T20:59:25.158Z,9.18
2023-04-21T21:01:54.247Z,18.83
2023-04-21T21:04:23.208Z,16.90
2023-04-21T21:06:51.206Z,12.18
2023-04-21T21:09:22.450Z,14.57
2023-04-21T21:12:23.014Z,10.85
2023-04-21T21:14:50.989Z,15.40
2023-04-21T21:17:26.937Z,16.83
2023-04-21T21:19:56.350Z,13.32
2023-04-21T21:22:25.108Z,16.08
2023-04-21T21:24:59.237Z,20.60
2023-04-21T21:27:28.141Z,12.57
2023-04-21T21:29:56.348Z,15.23
2023-04-21T21:32:24.438Z,12.85
2023-04-21T21:34:55.980Z,12.00
2023-04-21T21:37:26.497Z,9.48
2023-04-21T21:39:58.109Z,11.52
2023-04-21T21:42:29.232Z,22.52
2023-04-21T21:44:57.135Z,19.65
2023-04-21T21:47:25.345Z,16.02
2023-04-21T21:49:55.127Z,12.90
2023-04-21T21:52:23.456Z,13.35
2023-04-21T21:54:52.783Z,13.32
2023-04-21T21:57:21.454Z,13.18
2023-04-21T21:59:50.108Z,15.35
2023-04-21T22:02:19.821Z,14.50
2023-04-21T22:04:47.879Z,14.13
2023-04-21T22:07:17.741Z,14.43
2023-04-21T22:09:46.379Z,15.75
2023-04-21T22:12:14.764Z,13.82
2023-04-21T22:14:43.150Z,20.25
2023-04-21T22:17:10.903Z,17.55
2023-04-21T22:19:41.925Z,22.10
2023-04-21T22:22:14.240Z,20.75
2023-04-21T22:24:43.253Z,20.90
2023-04-21T22:27:11.120Z,13.80
2023-04-21T22:29:39.396Z,18.73
2023-04-21T22:32:07.444Z,19.45
2023-04-21T22:34:36.251Z,17.67
2023-04-21T22:37:05.843Z,19.45
2023-04-21T22:39:35.242Z,20.98
2023-04-21T22:42:03.137Z,21.70
2023-04-21T22:44:31.187Z,21.63
2023-04-21T22:46:59.588Z,19.40
2023-04-21T22:49:28.960Z,17.90
2023-04-21T22:51:58.143Z,18.50
2023-04-21T22:54:26.194Z,16.17
2023-04-21T22:56:54.444Z,15.63
2023-04-21T22:59:22.714Z,14.05
2023-04-21T23:01:51.223Z,20.25
2023-04-21T23:04:19.366Z,18.58
2023-04-21T23:06:48.148Z,15.23
2023-04-21T23:09:16.438Z,17.65
2023-04-21T23:11:44.331Z,16.27
2023-04-21T23:14:12.214Z,14.60
2023-04-21T23:16:40.436Z,14.05
2023-04-21T23:19:09.466Z,17.75
2023-04-21T23:21:37.637Z,16.70
2023-04-21T23:24:06.436Z,15.07
2023-04-21T23:26:35.161Z,13.23
2023-04-21T23:29:03.049Z,13.18
2023-04-21T23:31:31.798Z,14.93
2023-04-21T23:34:02.368Z,19.90
2023-04-21T23:36:31.979Z,19.08
2023-04-21T23:39:00.215Z,16.45
2023-04-21T23:41:29.227Z,13.93
2023-04-21T23:43:57.599Z,18.30
2023-04-21T23:46:26.338Z,13.38
2023-04-21T23:48:54.169Z,16.58
2023-04-21T23:51:23.549Z,15.73
2023-04-21T23:53:51.476Z,16.98
2023-04-21T23:56:19.363Z,16.17
2023-04-21T23:58:48.367Z,14.18
